Time;durP1;ratioP1;P1;durP2;ratioP2;P2;SDS_P1;SDS_P2;PMS_P1;PMS_P2;Temp;Humidity;BMP_temperature;BMP_pressure;BME280_temperature;BME280_humidity;BME280_pressure;Samples;Min_cycle;Max_cycle;Signal;HPM_P1;HPM_P2
2023/10/31 00:01:29;;;;;;;0.30;0.30;;;10.20;99.90;;;;;;5018347;28;20041;-86
2023/10/31 00:03:54;;;;;;;0.35;0.35;;;10.20;99.90;;;;;;5019427;28;20045;-88
2023/10/31 00:06:20;;;;;;;1.50;0.85;;;10.20;99.90;;;;;;5020046;28;20084;-86
2023/10/31 00:08:46;;;;;;;0.00;0.00;;;10.20;99.90;;;;;;5017701;28;20049;-86
2023/10/31 00:11:12;;;;;;;0.30;0.30;;;10.90;99.90;;;;;;5019259;28;20431;-86
2023/10/31 00:13:37;;;;;;;0.20;0.17;;;10.20;99.90;;;;;;5018247;28;20266;-87
2023/10/31 00:16:03;;;;;;;0.20;0.10;;;10.10;99.90;;;;;;5018675;28;20105;-87
2023/10/31 00:18:29;;;;;;;0.13;0.13;;;10.10;99.90;;;;;;5018412;28;20042;-87
2023/10/31 00:20:54;;;;;;;0.43;0.30;;;10.10;99.90;;;;;;5002413;28;20046;-87
2023/10/31 00:23:22;;;;;;;0.15;0.10;;;10.10;99.90;;;;;;5019118;28;20571;-85
2023/10/31 00:25:47;;;;;;;0.10;0.10;;;10.10;99.90;;;;;;5018235;28;20439;-86
2023/10/31 00:28:13;;;;;;;0.00;0.00;;;10.00;99.90;;;;;;5018919;28;20042;-87
2023/10/31 00:30:39;;;;;;;0.00;0.00;;;10.00;99.90;;;;;;5018490;28;20034;-87
2023/10/31 00:33:04;;;;;;;0.00;0.00;;;10.00;99.90;;;;;;5018429;28;20467;-86
2023/10/31 00:35:30;;;;;;;0.00;0.00;;;10.00;99.90;;;;;;5017466;28;20496;-87
2023/10/31 00:37:56;;;;;;;0.47;0.45;;;10.00;99.90;;;;;;5021555;28;20544;-86
2023/10/31 00:40:22;;;;;;;0.00;0.00;;;10.00;99.90;;;;;;5023002;28;20049;-88
2023/10/31 00:42:47;;;;;;;0.40;0.38;;;10.00;99.90;;;;;;5021931;28;20491;-87
2023/10/31 00:45:13;;;;;;;0.00;0.00;;;10.60;99.90;;;;;;5022836;28;20070;-87
2023/10/31 00:47:39;;;;;;;1.23;1.13;;;9.90;99.90;;;;;;5037968;28;20056;-87
2023/10/31 00:50:05;;;;;;;0.00;0.00;;;10.10;99.90;;;;;;5021213;28;20042;-87
2023/10/31 00:52:30;;;;;;;0.00;0.00;;;9.90;99.90;;;;;;5023209;28;20040;-88
2023/10/31 00:54:56;;;;;;;0.10;0.10;;;9.90;99.90;;;;;;5022874;28;20038;-87
2023/10/31 00:57:21;;;;;;;0.00;0.00;;;9.90;99.90;;;;;;5020250;28;20457;-87
2023/10/31 00:59:47;;;;;;;0.15;0.15;;;10.40;99.90;;;;;;5022354;28;20042;-87
2023/10/31 01:02:13;;;;;;;0.00;0.00;;;10.60;99.90;;;;;;5021448;28;20042;-87
2023/10/31 01:04:38;;;;;;;0.08;0.08;;;9.90;99.90;;;;;;5022403;28;20030;-87
2023/10/31 01:07:04;;;;;;;0.05;0.05;;;9.90;99.90;;;;;;5022412;28;20045;-85
2023/10/31 01:09:30;;;;;;;0.00;0.00;;;9.90;99.90;;;;;;5022401;28;20053;-86
2023/10/31 01:11:56;;;;;;;0.00;0.00;;;9.90;99.90;;;;;;5020714;28;20053;-86
2023/10/31 01:14:21;;;;;;;0.00;0.00;;;9.90;99.90;;;;;;5021943;28;20113;-86
2023/10/31 01:16:47;;;;;;;0.00;0.00;;;9.90;99.90;;;;;;5022409;28;20033;-87
2023/10/31 01:19:12;;;;;;;0.08;0.08;;;9.90;99.90;;;;;;5020450;28;20041;-87
2023/10/31 01:21:38;;;;;;;0.00;0.00;;;9.80;99.90;;;;;;5021434;28;20030;-85
2023/10/31 01:24:04;;;;;;;0.00;0.00;;;9.80;99.90;;;;;;5020930;28;20121;-85
2023/10/31 01:26:29;;;;;;;2.55;0.80;;;9.80;99.90;;;;;;5035694;28;20042;-85
2023/10/31 01:28:55;;;;;;;0.00;0.00;;;9.80;99.90;;;;;;5020387;28;20391;-85
2023/10/31 01:31:21;;;;;;;0.00;0.00;;;9.90;99.90;;;;;;5020114;28;20046;-84
2023/10/31 01:33:47;;;;;;;0.00;0.00;;;9.70;99.90;;;;;;5018771;28;20042;-84
2023/10/31 01:36:14;;;;;;;0.00;0.00;;;9.70;99.90;;;;;;5018612;28;20125;-84
2023/10/31 01:38:40;;;;;;;0.00;0.00;;;9.70;99.90;;;;;;5019098;28;20046;-85
2023/10/31 01:41:05;;;;;;;0.03;0.03;;;9.70;99.90;;;;;;5020281;28;20092;-87
2023/10/31 01:43:36;;;;;;;1.10;0.65;;;9.70;99.90;;;;;;5005472;28;20670;-82
2023/10/31 01:46:01;;;;;;;0.00;0.00;;;9.70;99.90;;;;;;5023882;28;20049;-83
2023/10/31 01:48:30;;;;;;;0.00;0.00;;;9.70;99.90;;;;;;5023854;28;20042;-82
2023/10/31 01:50:58;;;;;;;0.10;0.10;;;9.70;99.90;;;;;;5023868;28;20054;-81
2023/10/31 01:53:26;;;;;;;0.00;0.00;;;9.70;99.90;;;;;;5024283;28;20044;-82
2023/10/31 01:55:52;;;;;;;2.08;0.98;;;9.60;99.90;;;;;;5023339;28;20050;-80
2023/10/31 01:58:21;;;;;;;0.10;0.08;;;9.60;99.90;;;;;;5023633;28;20045;-80
2023/10/31 02:00:46;;;;;;;0.00;0.00;;;9.60;99.90;;;;;;5022843;28;20046;-81
2023/10/31 02:03:13;;;;;;;0.00;0.00;;;9.50;99.90;;;;;;5024549;28;20030;-80
2023/10/31 02:05:39;;;;;;;0.05;0.05;;;9.40;99.90;;;;;;5022783;28;20041;-80
2023/10/31 02:08:08;;;;;;;0.00;0.00;;;9.40;99.90;;;;;;5022230;28;20412;-83
2023/10/31 02:10:34;;;;;;;0.00;0.00;;;9.40;99.90;;;;;;5023122;28;20107;-82
2023/10/31 02:13:17;;;;;;;0.30;0.20;;;9.30;99.90;;;;;;5024401;28;20042;-82
2023/10/31 02:15:43;;;;;;;0.00;0.00;;;9.40;99.90;;;;;;5021802;28;20377;-82
2023/10/31 02:18:09;;;;;;;0.00;0.00;;;9.40;99.90;;;;;;5023266;28;20408;-82
2023/10/31 02:20:35;;;;;;;0.00;0.00;;;9.40;99.90;;;;;;5023618;28;20042;-82
2023/10/31 02:23:02;;;;;;;2.63;0.45;;;9.40;99.90;;;;;;5022210;28;20041;-83
2023/10/31 02:25:28;;;;;;;0.10;0.10;;;9.40;99.90;;;;;;5023593;28;20042;-81
2023/10/31 02:27:53;;;;;;;0.00;0.00;;;9.40;99.90;;;;;;5022824;28;20056;-82
2023/10/31 02:30:19;;;;;;;0.10;0.10;;;9.40;99.90;;;;;;5022790;28;20128;-83
2023/10/31 02:32:45;;;;;;;1.20;0.35;;;9.40;99.90;;;;;;5022558;28;20050;-81
2023/10/31 02:35:11;;;;;;;0.00;0.00;;;9.40;99.90;;;;;;5023083;28;20033;-82
2023/10/31 02:37:36;;;;;;;0.00;0.00;;;9.40;99.90;;;;;;5021316;28;20042;-81
2023/10/31 02:40:02;;;;;;;0.30;0.30;;;9.40;99.90;;;;;;5022959;28;20514;-81
2023/10/31 02:42:28;;;;;;;0.00;0.00;;;9.30;99.90;;;;;;5020716;28;20046;-82
2023/10/31 02:44:54;;;;;;;0.30;0.30;;;9.40;99.90;;;;;;5022379;28;20064;-81
2023/10/31 02:47:20;;;;;;;0.00;0.00;;;10.00;99.90;;;;;;5004661;28;20045;-81
2023/10/31 02:49:45;;;;;;;0.00;0.00;;;9.30;99.90;;;;;;5021327;28;20061;-81
2023/10/31 02:52:11;;;;;;;0.00;0.00;;;9.30;99.90;;;;;;5022115;28;20042;-81
2023/10/31 02:54:37;;;;;;;0.00;0.00;;;9.20;99.90;;;;;;5022823;28;20045;-81
2023/10/31 02:57:03;;;;;;;0.08;0.05;;;9.30;99.90;;;;;;5019383;28;20062;-80
2023/10/31 02:59:28;;;;;;;0.00;0.00;;;9.30;99.90;;;;;;5020360;28;20045;-80
2023/10/31 03:01:56;;;;;;;0.03;0.03;;;9.20;99.90;;;;;;5021355;28;20042;-81
2023/10/31 03:04:22;;;;;;;0.00;0.00;;;9.80;99.90;;;;;;5021793;28;20125;-81
2023/10/31 03:06:47;;;;;;;0.00;0.00;;;9.30;99.90;;;;;;5021576;28;20054;-82
2023/10/31 03:09:13;;;;;;;0.00;0.00;;;9.30;99.90;;;;;;5021520;28;20045;-82
2023/10/31 03:11:38;;;;;;;0.00;0.00;;;9.30;99.90;;;;;;5021008;28;20392;-81
2023/10/31 03:14:04;;;;;;;0.08;0.08;;;9.40;99.90;;;;;;5021394;28;20049;-81
2023/10/31 03:16:30;;;;;;;0.00;0.00;;;9.40;99.90;;;;;;5019859;28;20050;-81
2023/10/31 03:18:56;;;;;;;0.08;0.08;;;9.40;99.90;;;;;;5020768;28;20133;-80
2023/10/31 03:21:21;;;;;;;0.00;0.00;;;9.40;99.90;;;;;;5020376;28;20048;-81
2023/10/31 03:23:49;;;;;;;0.00;0.00;;;9.40;99.90;;;;;;5020283;28;20061;-80
2023/10/31 03:26:18;;;;;;;0.00;0.00;;;9.40;99.90;;;;;;5020613;28;20121;-81
2023/10/31 03:28:44;;;;;;;0.05;0.05;;;9.50;99.90;;;;;;5020628;28;20125;-81
2023/10/31 03:31:10;;;;;;;0.20;0.20;;;9.40;99.90;;;;;;5018443;28;20456;-79
2023/10/31 03:33:36;;;;;;;0.45;0.30;;;9.40;99.90;;;;;;5017970;28;20480;-79
2023/10/31 03:36:02;;;;;;;0.00;0.00;;;9.50;99.90;;;;;;5016874;28;20049;-79
2023/10/31 03:38:28;;;;;;;0.38;0.03;;;9.50;99.90;;;;;;5017822;28;20042;-80
2023/10/31 03:40:53;;;;;;;0.22;0.20;;;9.50;99.90;;;;;;5018877;28;20050;-80
2023/10/31 03:43:19;;;;;;;0.00;0.00;;;9.50;99.90;;;;;;5018870;28;20064;-80
2023/10/31 03:45:48;;;;;;;0.08;0.08;;;10.00;99.90;;;;;;5017127;28;20101;-80
2023/10/31 03:48:15;;;;;;;0.85;0.47;;;9.60;99.90;;;;;;5016931;28;20034;-80
2023/10/31 03:50:41;;;;;;;0.00;0.00;;;9.60;99.90;;;;;;5019462;28;20046;-79
2023/10/31 03:53:07;;;;;;;0.10;0.05;;;9.60;99.90;;;;;;5025687;28;20034;-79
2023/10/31 03:55:33;;;;;;;2.30;1.55;;;9.60;99.90;;;;;;5017011;28;20042;-80
2023/10/31 03:57:58;;;;;;;0.52;0.22;;;9.60;99.90;;;;;;5016331;28;20105;-79
2023/10/31 04:00:24;;;;;;;0.47;0.43;;;9.60;99.90;;;;;;5017289;28;20058;-80
2023/10/31 04:02:49;;;;;;;0.35;0.15;;;9.60;99.90;;;;;;5019664;28;20082;-80
2023/10/31 04:05:15;;;;;;;0.25;0.10;;;9.60;99.90;;;;;;5019529;28;20038;-80
2023/10/31 04:07:41;;;;;;;0.10;0.10;;;9.60;99.90;;;;;;5019903;28;20494;-80
2023/10/31 04:10:07;;;;;;;0.55;0.55;;;9.60;99.90;;;;;;5020898;28;20037;-80
2023/10/31 04:12:33;;;;;;;0.40;0.10;;;9.70;99.90;;;;;;5023745;28;20056;-80
2023/10/31 04:14:59;;;;;;;0.22;0.20;;;9.60;99.90;;;;;;5023663;28;20222;-80
2023/10/31 04:17:25;;;;;;;0.80;0.65;;;9.70;99.90;;;;;;5023902;28;20034;-80
2023/10/31 04:19:50;;;;;;;1.40;0.68;;;9.60;99.90;;;;;;5023128;28;20042;-80
2023/10/31 04:22:16;;;;;;;0.35;0.20;;;9.60;99.90;;;;;;5024338;28;20096;-81
2023/10/31 04:24:43;;;;;;;5.38;0.60;;;9.70;99.90;;;;;;5024485;28;20050;-81
2023/10/31 04:27:08;;;;;;;1.50;0.50;;;9.60;99.90;;;;;;5023395;28;20049;-81
2023/10/31 04:29:34;;;;;;;0.00;0.00;;;9.70;99.90;;;;;;5024610;28;20092;-81
2023/10/31 04:32:00;;;;;;;0.00;0.00;;;9.80;99.90;;;;;;5024603;28;20091;-82
2023/10/31 04:34:25;;;;;;;0.00;0.00;;;9.70;99.90;;;;;;5024657;28;20064;-81
2023/10/31 04:36:51;;;;;;;0.00;0.00;;;9.70;99.90;;;;;;5023772;28;20042;-81
2023/10/31 04:39:16;;;;;;;0.35;0.20;;;9.70;99.90;;;;;;5023975;28;20391;-82
2023/10/31 04:41:42;;;;;;;0.32;0.30;;;9.70;99.90;;;;;;5024159;28;20025;-82
2023/10/31 04:44:07;;;;;;;0.00;0.00;;;9.70;99.90;;;;;;5024600;28;20048;-80
2023/10/31 04:46:33;;;;;;;0.00;0.00;;;9.70;99.90;;;;;;5022732;28;20038;-82
2023/10/31 04:48:59;;;;;;;0.00;0.00;;;9.70;99.90;;;;;;5023345;28;20034;-81
2023/10/31 04:51:25;;;;;;;0.00;0.00;;;9.80;99.90;;;;;;5024127;28;20104;-82
2023/10/31 04:53:50;;;;;;;0.00;0.00;;;9.80;99.90;;;;;;5023228;28;20113;-82
2023/10/31 04:56:17;;;;;;;1.08;0.35;;;9.80;99.90;;;;;;5022841;28;20057;-83
2023/10/31 04:58:43;;;;;;;1.80;0.73;;;9.80;99.90;;;;;;5023961;28;20037;-82
2023/10/31 05:01:13;;;;;;;0.00;0.00;;;9.80;99.90;;;;;;5024097;28;20045;-82
2023/10/31 05:03:39;;;;;;;3.85;1.35;;;9.70;99.90;;;;;;5024322;28;20046;-82
2023/10/31 05:06:05;;;;;;;0.00;0.00;;;9.80;99.90;;;;;;5025021;28;20377;-82
2023/10/31 05:08:31;;;;;;;0.00;0.00;;;9.80;99.90;;;;;;5023072;28;20418;-82
2023/10/31 05:10:58;;;;;;;0.10;0.10;;;9.80;99.90;;;;;;5024183;28;20368;-82
2023/10/31 05:13:24;;;;;;;0.00;0.00;;;9.70;99.90;;;;;;5023474;28;20034;-82
2023/10/31 05:15:50;;;;;;;0.00;0.00;;;9.80;99.90;;;;;;5023727;28;20121;-83
2023/10/31 05:18:16;;;;;;;0.15;0.15;;;9.70;99.90;;;;;;5023451;28;20088;-84
2023/10/31 05:20:43;;;;;;;0.00;0.00;;;9.90;99.90;;;;;;5024058;28;20105;-82
2023/10/31 05:23:08;;;;;;;0.00;0.00;;;9.80;99.90;;;;;;5023631;28;20072;-82
2023/10/31 05:25:34;;;;;;;0.00;0.00;;;9.80;99.90;;;;;;5023295;28;20503;-82
2023/10/31 05:28:01;;;;;;;0.00;0.00;;;9.80;99.90;;;;;;5023794;28;20048;-83
2023/10/31 05:30:26;;;;;;;0.00;0.00;;;9.80;99.90;;;;;;5023708;28;20033;-82
2023/10/31 05:32:52;;;;;;;0.75;0.75;;;9.80;99.90;;;;;;5022864;28;20510;-83
2023/10/31 05:35:19;;;;;;;0.00;0.00;;;9.80;99.90;;;;;;5024156;28;20116;-83
2023/10/31 05:37:46;;;;;;;0.00;0.00;;;9.80;99.90;;;;;;5024327;28;20080;-82
2023/10/31 05:40:12;;;;;;;0.00;0.00;;;9.80;99.90;;;;;;5023249;28;20484;-82
2023/10/31 05:42:38;;;;;;;0.00;0.00;;;9.80;99.90;;;;;;5022995;28;20069;-82
2023/10/31 05:45:04;;;;;;;0.00;0.00;;;9.70;99.90;;;;;;5022547;28;20400;-82
2023/10/31 05:47:30;;;;;;;0.00;0.00;;;9.70;99.90;;;;;;5015305;28;20180;-82
2023/10/31 05:49:55;;;;;;;0.00;0.00;;;9.70;99.90;;;;;;5023815;28;20092;-82
2023/10/31 05:52:21;;;;;;;0.15;0.15;;;9.70;99.90;;;;;;5024355;28;20048;-82
2023/10/31 05:54:47;;;;;;;0.00;0.00;;;9.70;99.90;;;;;;5023828;28;20034;-81
2023/10/31 05:57:12;;;;;;;0.00;0.00;;;9.70;99.90;;;;;;5023372;28;20088;-82
2023/10/31 05:59:38;;;;;;;0.00;0.00;;;9.60;99.90;;;;;;5023636;28;20042;-82
2023/10/31 06:02:04;;;;;;;0.00;0.00;;;9.70;99.90;;;;;;5023628;28;20057;-82
2023/10/31 06:04:29;;;;;;;1.00;0.52;;;9.70;99.90;;;;;;5022820;28;20438;-83
2023/10/31 06:06:55;;;;;;;0.77;0.47;;;9.70;99.90;;;;;;5024044;28;20121;-82
2023/10/31 06:09:21;;;;;;;0.00;0.00;;;9.70;99.90;;;;;;5023315;28;20519;-82
2023/10/31 06:11:47;;;;;;;0.10;0.05;;;9.70;99.90;;;;;;5023438;28;20081;-82
2023/10/31 06:14:13;;;;;;;0.00;0.00;;;9.70;99.90;;;;;;5023836;28;20045;-82
2023/10/31 06:16:42;;;;;;;0.00;0.00;;;9.70;99.90;;;;;;5022889;28;20559;-82
2023/10/31 06:19:08;;;;;;;0.00;0.00;;;9.90;99.90;;;;;;5023639;28;20042;-83
2023/10/31 06:21:34;;;;;;;0.00;0.00;;;9.80;99.90;;;;;;5022372;28;20049;-82
2023/10/31 06:23:59;;;;;;;0.20;0.20;;;9.80;99.90;;;;;;5023071;28;20037;-83
2023/10/31 06:26:25;;;;;;;0.00;0.00;;;9.80;99.90;;;;;;5022589;28;20062;-81
2023/10/31 06:28:51;;;;;;;0.00;0.00;;;9.80;99.90;;;;;;5021557;28;20054;-82
2023/10/31 06:31:16;;;;;;;0.25;0.15;;;9.80;99.90;;;;;;5022465;28;20120;-81
2023/10/31 06:33:42;;;;;;;0.00;0.00;;;9.80;99.90;;;;;;5020831;28;20034;-81
2023/10/31 06:36:08;;;;;;;0.00;0.00;;;9.90;99.90;;;;;;5020882;28;20108;-81
2023/10/31 06:38:34;;;;;;;0.00;0.00;;;9.80;99.90;;;;;;5020979;28;20472;-81
2023/10/31 06:40:59;;;;;;;0.00;0.00;;;9.80;99.90;;;;;;5020349;28;20059;-81
2023/10/31 06:43:25;;;;;;;0.00;0.00;;;9.80;99.90;;;;;;5021508;28;20065;-81
2023/10/31 06:45:51;;;;;;;0.00;0.00;;;9.90;99.90;;;;;;5021814;28;20030;-81
2023/10/31 06:48:16;;;;;;;0.00;0.00;;;9.80;99.90;;;;;;5021985;28;20038;-81
2023/10/31 06:50:42;;;;;;;0.57;0.32;;;9.80;99.90;;;;;;5020927;28;20046;-81
2023/10/31 06:53:08;;;;;;;0.22;0.20;;;9.80;99.90;;;;;;5021417;28;20054;-81
2023/10/31 06:55:40;;;;;;;0.55;0.30;;;9.90;99.90;;;;;;5097070;27;20716;-80
2023/10/31 06:58:06;;;;;;;0.00;0.00;;;9.90;99.90;;;;;;5076364;28;20086;-80
2023/10/31 07:00:32;;;;;;;0.00;0.00;;;9.80;99.90;;;;;;5075806;28;20505;-80
2023/10/31 07:02:58;;;;;;;0.10;0.10;;;9.90;99.90;;;;;;5075305;28;20041;-80
2023/10/31 07:05:24;;;;;;;0.20;0.20;;;9.90;99.90;;;;;;5075022;28;20041;-80
2023/10/31 07:07:50;;;;;;;0.00;0.00;;;9.90;99.90;;;;;;5069653;28;20057;-80
2023/10/31 07:10:15;;;;;;;0.13;0.13;;;9.90;99.90;;;;;;5072683;28;20332;-80
2023/10/31 07:12:41;;;;;;;0.00;0.00;;;10.10;99.90;;;;;;5070624;28;20053;-80
2023/10/31 07:15:07;;;;;;;0.17;0.17;;;9.90;99.90;;;;;;5073075;28;20040;-80
2023/10/31 07:17:33;;;;;;;1.40;0.30;;;9.90;99.90;;;;;;5073316;28;20047;-80
2023/10/31 07:19:58;;;;;;;0.00;0.00;;;9.90;99.90;;;;;;5072493;28;20155;-80
2023/10/31 07:22:24;;;;;;;0.15;0.15;;;9.90;99.90;;;;;;5072982;28;20044;-80
2023/10/31 07:24:53;;;;;;;0.08;0.05;;;9.90;99.90;;;;;;5073020;28;20106;-80
2023/10/31 07:27:19;;;;;;;0.68;0.25;;;9.90;99.90;;;;;;5074582;28;20079;-80
2023/10/31 07:29:46;;;;;;;0.05;0.05;;;10.00;99.90;;;;;;5073878;28;20502;-80
2023/10/31 07:32:12;;;;;;;1.88;1.35;;;10.00;99.90;;;;;;5072686;28;20055;-80
2023/10/31 07:34:41;;;;;;;0.30;0.30;;;10.00;99.90;;;;;;5072111;28;20087;-80
2023/10/31 07:37:07;;;;;;;0.17;0.17;;;10.00;99.90;;;;;;5072644;28;20049;-80
2023/10/31 07:39:33;;;;;;;0.00;0.00;;;10.10;99.90;;;;;;5073068;28;20041;-79
2023/10/31 07:41:58;;;;;;;0.10;0.10;;;10.10;99.90;;;;;;5073188;28;20074;-80
2023/10/31 07:44:24;;;;;;;0.05;0.05;;;10.10;99.90;;;;;;5071711;28;20052;-80
2023/10/31 07:46:49;;;;;;;0.10;0.10;;;10.10;99.90;;;;;;5077000;28;20051;-80
2023/10/31 07:49:15;;;;;;;0.30;0.30;;;10.10;99.90;;;;;;5072962;28;20076;-80
2023/10/31 07:51:40;;;;;;;0.30;0.30;;;10.10;99.90;;;;;;5073254;28;20223;-80
2023/10/31 07:54:06;;;;;;;0.10;0.10;;;10.10;99.90;;;;;;5071851;28;20053;-80
2023/10/31 07:56:32;;;;;;;0.17;0.13;;;10.10;99.90;;;;;;5072784;28;20053;-80
2023/10/31 07:58:58;;;;;;;0.93;0.10;;;10.10;99.90;;;;;;5080159;28;20045;-80
2023/10/31 08:01:25;;;;;;;0.10;0.10;;;10.20;99.90;;;;;;5072507;28;20562;-81
2023/10/31 08:03:50;;;;;;;0.17;0.08;;;10.20;99.90;;;;;;5072313;28;20058;-80
2023/10/31 08:06:16;;;;;;;0.00;0.00;;;10.20;99.90;;;;;;5068590;28;20040;-80
2023/10/31 08:08:41;;;;;;;0.00;0.00;;;10.30;99.90;;;;;;5061174;28;20033;-80
2023/10/31 08:11:09;;;;;;;0.52;0.10;;;10.40;99.90;;;;;;5059126;28;20044;-80
2023/10/31 08:13:36;;;;;;;1.98;0.30;;;10.60;99.90;;;;;;5058241;28;20045;-80
2023/10/31 08:16:02;;;;;;;1.88;0.63;;;10.40;99.90;;;;;;5060190;28;20037;-81
2023/10/31 08:18:27;;;;;;;0.00;0.00;;;10.50;99.90;;;;;;5058619;28;20052;-80
2023/10/31 08:20:53;;;;;;;0.32;0.15;;;10.40;99.90;;;;;;5058251;28;20045;-80
2023/10/31 08:23:18;;;;;;;0.32;0.30;;;10.50;99.90;;;;;;5058885;28;20479;-80
2023/10/31 08:25:44;;;;;;;0.00;0.00;;;10.60;99.90;;;;;;5059463;28;20052;-80
2023/10/31 08:28:10;;;;;;;0.00;0.00;;;10.50;99.90;;;;;;5059162;28;20041;-80
2023/10/31 08:30:36;;;;;;;0.00;0.00;;;10.60;99.90;;;;;;5060086;28;20045;-81
2023/10/31 08:33:02;;;;;;;0.00;0.00;;;10.60;99.90;;;;;;5059014;28;20051;-81
2023/10/31 08:35:27;;;;;;;0.00;0.00;;;10.70;99.90;;;;;;5063495;28;20036;-81
2023/10/31 08:37:53;;;;;;;0.00;0.00;;;10.70;99.90;;;;;;5060188;28;20114;-81
2023/10/31 08:40:19;;;;;;;0.30;0.28;;;10.70;99.90;;;;;;5058743;28;20061;-80
2023/10/31 08:42:44;;;;;;;0.00;0.00;;;10.70;99.90;;;;;;5058846;28;20048;-81
2023/10/31 08:45:10;;;;;;;0.00;0.00;;;10.80;99.90;;;;;;5059262;28;20056;-81
2023/10/31 08:47:35;;;;;;;0.45;0.45;;;11.00;99.90;;;;;;5059280;28;20048;-81
2023/10/31 08:50:01;;;;;;;0.17;0.10;;;10.80;99.90;;;;;;5058569;28;20073;-81
2023/10/31 08:52:26;;;;;;;0.00;0.00;;;11.00;99.90;;;;;;5057287;28;20041;-81
2023/10/31 08:54:52;;;;;;;0.00;0.00;;;10.80;99.90;;;;;;5058393;28;20083;-80
2023/10/31 08:57:17;;;;;;;0.00;0.00;;;10.80;99.90;;;;;;5059320;28;20075;-80
2023/10/31 08:59:43;;;;;;;1.13;0.35;;;10.80;99.90;;;;;;5059242;28;20092;-81
2023/10/31 09:02:09;;;;;;;0.00;0.00;;;10.80;99.90;;;;;;5059310;28;20487;-82
2023/10/31 09:04:35;;;;;;;0.00;0.00;;;10.80;99.90;;;;;;5059021;28;20045;-81
2023/10/31 09:07:00;;;;;;;0.00;0.00;;;10.80;99.90;;;;;;5057135;28;20068;-80
2023/10/31 09:09:26;;;;;;;9.85;1.10;;;10.80;99.90;;;;;;5059065;28;20044;-81
2023/10/31 09:11:52;;;;;;;0.00;0.00;;;10.80;99.90;;;;;;5058842;28;20043;-80
2023/10/31 09:14:17;;;;;;;0.00;0.00;;;10.80;99.90;;;;;;5064039;28;20425;-80
2023/10/31 09:16:43;;;;;;;0.00;0.00;;;10.90;99.90;;;;;;5060579;28;20063;-82
2023/10/31 09:19:09;;;;;;;0.00;0.00;;;10.80;99.90;;;;;;5062147;28;20041;-81
2023/10/31 09:21:34;;;;;;;0.00;0.00;;;10.90;99.90;;;;;;5063450;28;20048;-81
2023/10/31 09:24:00;;;;;;;0.00;0.00;;;11.00;99.90;;;;;;5060508;28;20044;-81
2023/10/31 09:26:25;;;;;;;0.00;0.00;;;11.30;99.90;;;;;;5058835;28;20041;-81
2023/10/31 09:28:51;;;;;;;0.00;0.00;;;11.40;99.90;;;;;;5057436;28;20361;-81
2023/10/31 09:31:20;;;;;;;0.10;0.10;;;11.60;99.90;;;;;;5054961;28;20033;-80
2023/10/31 09:33:46;;;;;;;0.00;0.00;;;11.80;99.90;;;;;;5056687;28;20472;-80
2023/10/31 09:36:12;;;;;;;0.00;0.00;;;11.80;99.90;;;;;;5058084;28;20347;-81
2023/10/31 09:38:38;;;;;;;1.98;1.55;;;11.80;99.90;;;;;;5057507;28;20048;-81
2023/10/31 09:41:04;;;;;;;0.00;0.00;;;11.70;99.90;;;;;;5055353;28;20045;-80
2023/10/31 09:43:30;;;;;;;0.00;0.00;;;11.60;99.90;;;;;;5063999;28;20044;-80
2023/10/31 09:45:57;;;;;;;0.17;0.17;;;11.60;99.90;;;;;;5059963;28;20055;-80
2023/10/31 09:48:23;;;;;;;0.00;0.00;;;11.40;99.90;;;;;;5056833;28;20130;-79
2023/10/31 09:50:49;;;;;;;0.08;0.08;;;11.20;99.90;;;;;;5054631;28;20052;-80
2023/10/31 09:53:18;;;;;;;0.00;0.00;;;11.10;99.90;;;;;;5056155;28;20037;-80
2023/10/31 09:55:45;;;;;;;0.00;0.00;;;12.20;99.90;;;;;;5046811;28;20049;-79
2023/10/31 09:58:11;;;;;;;0.20;0.10;;;11.10;99.90;;;;;;5055387;28;20403;-79
2023/10/31 10:00:37;;;;;;;0.00;0.00;;;11.10;99.90;;;;;;5056384;28;20128;-80
2023/10/31 10:03:04;;;;;;;0.00;0.00;;;11.00;99.90;;;;;;5057353;28;20067;-80
2023/10/31 10:05:34;;;;;;;0.00;0.00;;;11.10;99.90;;;;;;5056785;28;20045;-81
2023/10/31 10:08:00;;;;;;;0.00;0.00;;;11.20;99.90;;;;;;5056069;28;20063;-80
2023/10/31 10:10:25;;;;;;;2.95;0.17;;;10.90;99.90;;;;;;5061291;28;20048;-80
2023/10/31 10:12:55;;;;;;;0.00;0.00;;;10.80;99.90;;;;;;5055485;28;20128;-79
2023/10/31 10:15:21;;;;;;;0.00;0.00;;;10.80;99.90;;;;;;5057003;28;20044;-80
2023/10/31 10:17:51;;;;;;;0.00;0.00;;;10.90;99.90;;;;;;5056926;28;20057;-81
2023/10/31 10:20:17;;;;;;;0.00;0.00;;;10.80;99.90;;;;;;5058277;28;20380;-80
2023/10/31 10:22:44;;;;;;;0.00;0.00;;;11.00;99.90;;;;;;5060273;28;20573;-81
2023/10/31 10:25:13;;;;;;;0.13;0.13;;;11.10;99.90;;;;;;5057512;28;20449;-80
2023/10/31 10:27:40;;;;;;;0.00;0.00;;;11.10;99.90;;;;;;5056961;28;20090;-81
2023/10/31 10:30:07;;;;;;;0.00;0.00;;;11.20;99.90;;;;;;5057588;28;20076;-81
2023/10/31 10:32:33;;;;;;;0.00;0.00;;;11.40;99.90;;;;;;5057518;28;20056;-81
2023/10/31 10:35:00;;;;;;;0.22;0.22;;;11.30;99.90;;;;;;5057808;28;20037;-81
2023/10/31 10:37:27;;;;;;;0.00;0.00;;;11.30;99.90;;;;;;5057180;28;20395;-80
2023/10/31 10:39:56;;;;;;;0.00;0.00;;;11.20;99.90;;;;;;5056376;28;20053;-80
2023/10/31 10:42:35;;;;;;;0.30;0.28;;;11.20;99.90;;;;;;5058887;28;20052;-80
2023/10/31 10:45:05;;;;;;;0.25;0.10;;;11.20;99.90;;;;;;5061861;28;20081;-81
2023/10/31 10:47:35;;;;;;;0.10;0.10;;;11.20;99.90;;;;;;5056578;28;20048;-80
2023/10/31 10:50:02;;;;;;;2.65;0.90;;;11.40;99.90;;;;;;5058383;28;20621;-80
2023/10/31 10:52:35;;;;;;;0.00;0.00;;;11.40;99.90;;;;;;5057763;28;20045;-80
2023/10/31 10:55:07;;;;;;;0.00;0.00;;;11.50;99.90;;;;;;5060076;28;20107;-80
2023/10/31 10:57:51;;;;;;;0.00;0.00;;;11.50;99.90;;;;;;5056709;28;20049;-80
2023/10/31 11:00:19;;;;;;;0.20;0.15;;;11.60;99.90;;;;;;5060450;28;20044;-80
2023/10/31 11:02:46;;;;;;;0.00;0.00;;;11.60;99.90;;;;;;5050782;28;20041;-79
2023/10/31 11:05:13;;;;;;;0.05;0.05;;;11.60;99.90;;;;;;5062634;28;20052;-79
2023/10/31 11:07:40;;;;;;;0.00;0.00;;;11.60;99.90;;;;;;5060803;28;20131;-78
2023/10/31 11:10:07;;;;;;;0.20;0.20;;;11.60;99.90;;;;;;5053986;28;20040;-80
2023/10/31 11:12:33;;;;;;;0.15;0.10;;;11.20;99.90;;;;;;5058851;28;20469;-79
2023/10/31 11:15:00;;;;;;;0.00;0.00;;;11.20;99.90;;;;;;5068302;28;20069;-79
2023/10/31 11:17:28;;;;;;;0.00;0.00;;;11.40;99.90;;;;;;5059173;28;20048;-79
2023/10/31 11:19:55;;;;;;;0.00;0.00;;;11.10;99.90;;;;;;5056816;28;20486;-79
2023/10/31 11:22:21;;;;;;;0.00;0.00;;;11.10;99.90;;;;;;5055935;28;20483;-79
2023/10/31 11:24:49;;;;;;;0.00;0.00;;;10.90;99.90;;;;;;5066371;28;20100;-79
2023/10/31 11:27:16;;;;;;;0.00;0.00;;;10.90;99.90;;;;;;5058774;28;20032;-79
2023/10/31 11:29:42;;;;;;;0.00;0.00;;;10.80;99.90;;;;;;5059154;28;20053;-80
2023/10/31 11:32:11;;;;;;;0.00;0.00;;;10.90;99.90;;;;;;5059436;28;20079;-79
2023/10/31 11:34:41;;;;;;;0.22;0.22;;;10.80;99.90;;;;;;5060167;28;20041;-79
2023/10/31 11:37:29;;;;;;;0.00;0.00;;;10.90;99.90;;;;;;5059606;28;20041;-79
2023/10/31 11:40:13;;;;;;;0.00;0.00;;;11.00;99.90;;;;;;5059050;28;20375;-79
2023/10/31 11:42:38;;;;;;;0.00;0.00;;;11.00;99.90;;;;;;5062900;28;20080;-80
2023/10/31 11:45:05;;;;;;;0.00;0.00;;;11.10;99.90;;;;;;5063345;28;20049;-80
2023/10/31 11:47:51;;;;;;;0.38;0.30;;;11.20;99.90;;;;;;5062702;28;20041;-80
2023/10/31 11:50:17;;;;;;;0.00;0.00;;;12.00;99.90;;;;;;5062888;28;20061;-80
2023/10/31 11:52:43;;;;;;;0.10;0.10;;;11.80;99.90;;;;;;5062977;28;20037;-80
2023/10/31 11:55:12;;;;;;;0.00;0.00;;;12.10;99.90;;;;;;5062638;28;20502;-80
2023/10/31 11:57:40;;;;;;;0.00;0.00;;;12.00;99.90;;;;;;5050969;28;20474;-80
2023/10/31 12:00:10;;;;;;;0.25;0.25;;;11.80;99.90;;;;;;5060301;28;20495;-79
2023/10/31 12:02:35;;;;;;;0.00;0.00;;;11.60;99.90;;;;;;5062068;28;20064;-80
2023/10/31 12:05:12;;;;;;;0.00;0.00;;;11.40;79.60;;;;;;5063061;28;20044;-80
2023/10/31 12:07:47;;;;;;;0.00;0.00;;;11.30;99.90;;;;;;5062231;28;20044;-80
2023/10/31 12:10:22;;;;;;;0.00;0.00;;;11.20;1.00;;;;;;5062229;28;20070;-80
2023/10/31 12:12:47;;;;;;;0.08;0.08;;;11.50;1.00;;;;;;5062207;28;20455;-79
2023/10/31 12:15:13;;;;;;;0.00;0.00;;;11.20;41.90;;;;;;5068182;28;20041;-80
2023/10/31 12:17:38;;;;;;;0.85;0.63;;;11.50;1.00;;;;;;5060400;28;20037;-80
2023/10/31 12:20:08;;;;;;;0.10;0.10;;;11.80;99.90;;;;;;5061258;28;20033;-80
2023/10/31 12:22:35;;;;;;;0.80;0.30;;;12.00;99.90;;;;;;5065398;28;20041;-79
2023/10/31 12:25:03;;;;;;;0.00;0.00;;;12.20;99.90;;;;;;5062549;28;20102;-80
2023/10/31 12:27:52;;;;;;;0.00;0.00;;;12.40;1.00;;;;;;5065740;28;20041;-80
2023/10/31 12:30:20;;;;;;;0.00;0.00;;;12.60;99.90;;;;;;5053535;28;20044;-79
2023/10/31 12:32:59;;;;;;;0.00;0.00;;;12.90;19.90;;;;;;5065041;28;20044;-80
2023/10/31 12:35:26;;;;;;;0.00;0.00;;;12.60;1.00;;;;;;5054502;28;20033;-80
2023/10/31 12:37:52;;;;;;;0.00;0.00;;;12.50;1.00;;;;;;5060489;28;20147;-80
2023/10/31 12:40:20;;;;;;;0.00;0.00;;;12.30;1.00;;;;;;5062043;28;20071;-80
2023/10/31 12:42:47;;;;;;;12.13;1.08;;;12.10;99.90;;;;;;5066064;28;20414;-79
2023/10/31 12:45:14;;;;;;;3.20;0.80;;;11.90;99.90;;;;;;5061826;28;20045;-80
2023/10/31 12:47:40;;;;;;;0.80;0.40;;;11.70;99.90;;;;;;5053931;28;20075;-80
2023/10/31 12:50:08;;;;;;;0.08;0.08;;;11.60;1.00;;;;;;5060025;28;20041;-81